sensor_id;sensor_type;location;lat;lon;timestamp;P1;durP1;ratioP1;P2;durP2;ratioP2
27833;SDS011;15200;50.570;7.244;2022-12-11T00:02:27;38.77;;;22.07;;
27833;SDS011;15200;50.570;7.244;2022-12-11T00:04:54;37.17;;;21.43;;
27833;SDS011;15200;50.570;7.244;2022-12-11T00:07:22;46.73;;;24.73;;
27833;SDS011;15200;50.570;7.244;2022-12-11T00:09:49;42.17;;;22.33;;
27833;SDS011;15200;50.570;7.244;2022-12-11T00:12:16;46.87;;;22.83;;
27833;SDS011;15200;50.570;7.244;2022-12-11T00:14:44;40.10;;;22.20;;
27833;SDS011;15200;50.570;7.244;2022-12-11T00:17:11;40.57;;;21.77;;
27833;SDS011;15200;50.570;7.244;2022-12-11T00:19:38;41.33;;;20.43;;
27833;SDS011;15200;50.570;7.244;2022-12-11T00:22:06;40.27;;;21.00;;
27833;SDS011;15200;50.570;7.244;2022-12-11T00:24:33;37.20;;;19.73;;
27833;SDS011;15200;50.570;7.244;2022-12-11T00:27:00;40.03;;;21.30;;
27833;SDS011;15200;50.570;7.244;2022-12-11T00:29:27;40.70;;;21.57;;
27833;SDS011;15200;50.570;7.244;2022-12-11T00:31:55;45.03;;;22.70;;
27833;SDS011;15200;50.570;7.244;2022-12-11T00:34:22;37.50;;;21.70;;
27833;SDS011;15200;50.570;7.244;2022-12-11T00:36:49;39.97;;;21.37;;
27833;SDS011;15200;50.570;7.244;2022-12-11T00:39:17;43.13;;;22.03;;
27833;SDS011;15200;50.570;7.244;2022-12-11T00:41:44;39.03;;;20.90;;
27833;SDS011;15200;50.570;7.244;2022-12-11T00:44:11;37.67;;;19.93;;
27833;SDS011;15200;50.570;7.244;2022-12-11T00:46:39;40.83;;;22.30;;
27833;SDS011;15200;50.570;7.244;2022-12-11T00:49:06;40.43;;;21.70;;
27833;SDS011;15200;50.570;7.244;2022-12-11T00:51:33;42.20;;;21.53;;
27833;SDS011;15200;50.570;7.244;2022-12-11T00:54:00;43.40;;;21.00;;
27833;SDS011;15200;50.570;7.244;2022-12-11T00:56:29;35.13;;;20.13;;
27833;SDS011;15200;50.570;7.244;2022-12-11T00:58:56;41.73;;;21.10;;
27833;SDS011;15200;50.570;7.244;2022-12-11T01:01:23;38.83;;;22.10;;
27833;SDS011;15200;50.570;7.244;2022-12-11T01:03:51;40.97;;;21.17;;
27833;SDS011;15200;50.570;7.244;2022-12-11T01:06:24;38.37;;;21.17;;
27833;SDS011;15200;50.570;7.244;2022-12-11T01:08:47;37.97;;;21.03;;
27833;SDS011;15200;50.570;7.244;2022-12-11T01:11:16;35.63;;;20.20;;
27833;SDS011;15200;50.570;7.244;2022-12-11T01:13:45;38.03;;;20.93;;
27833;SDS011;15200;50.570;7.244;2022-12-11T01:16:14;40.17;;;20.57;;
27833;SDS011;15200;50.570;7.244;2022-12-11T01:18:41;37.77;;;21.07;;
27833;SDS011;15200;50.570;7.244;2022-12-11T01:21:09;33.00;;;20.73;;
27833;SDS011;15200;50.570;7.244;2022-12-11T01:23:37;45.23;;;22.67;;
27833;SDS011;15200;50.570;7.244;2022-12-11T01:26:10;40.17;;;21.20;;
27833;SDS011;15200;50.570;7.244;2022-12-11T01:28:34;39.67;;;21.87;;
27833;SDS011;15200;50.570;7.244;2022-12-11T01:31:01;39.23;;;20.73;;
27833;SDS011;15200;50.570;7.244;2022-12-11T01:33:28;41.30;;;21.30;;
27833;SDS011;15200;50.570;7.244;2022-12-11T01:35:55;39.77;;;20.97;;
27833;SDS011;15200;50.570;7.244;2022-12-11T01:38:23;43.87;;;23.67;;
27833;SDS011;15200;50.570;7.244;2022-12-11T01:40:50;35.13;;;20.90;;
27833;SDS011;15200;50.570;7.244;2022-12-11T01:43:17;40.10;;;21.70;;
27833;SDS011;15200;50.570;7.244;2022-12-11T01:45:46;44.97;;;22.20;;
27833;SDS011;15200;50.570;7.244;2022-12-11T01:48:33;43.50;;;21.97;;
27833;SDS011;15200;50.570;7.244;2022-12-11T01:51:02;44.20;;;23.07;;
27833;SDS011;15200;50.570;7.244;2022-12-11T01:53:33;43.50;;;21.47;;
27833;SDS011;15200;50.570;7.244;2022-12-11T01:55:58;40.33;;;22.77;;
27833;SDS011;15200;50.570;7.244;2022-12-11T02:01:15;37.23;;;19.67;;
27833;SDS011;15200;50.570;7.244;2022-12-11T02:03:42;37.63;;;20.87;;
27833;SDS011;15200;50.570;7.244;2022-12-11T02:08:55;44.10;;;21.97;;
27833;SDS011;15200;50.570;7.244;2022-12-11T02:11:23;43.33;;;22.50;;
27833;SDS011;15200;50.570;7.244;2022-12-11T02:13:53;46.03;;;22.00;;
27833;SDS011;15200;50.570;7.244;2022-12-11T02:16:23;43.47;;;23.00;;
27833;SDS011;15200;50.570;7.244;2022-12-11T02:18:54;38.63;;;20.63;;
27833;SDS011;15200;50.570;7.244;2022-12-11T02:29:06;38.73;;;20.83;;
27833;SDS011;15200;50.570;7.244;2022-12-11T02:31:35;42.07;;;21.50;;
27833;SDS011;15200;50.570;7.244;2022-12-11T02:34:17;38.83;;;21.17;;
27833;SDS011;15200;50.570;7.244;2022-12-11T02:36:45;39.27;;;21.50;;
27833;SDS011;15200;50.570;7.244;2022-12-11T02:39:12;42.00;;;21.90;;
27833;SDS011;15200;50.570;7.244;2022-12-11T02:41:42;42.60;;;22.03;;
27833;SDS011;15200;50.570;7.244;2022-12-11T02:44:10;42.73;;;21.67;;
27833;SDS011;15200;50.570;7.244;2022-12-11T02:46:38;42.77;;;21.07;;
27833;SDS011;15200;50.570;7.244;2022-12-11T02:49:06;46.20;;;22.53;;
27833;SDS011;15200;50.570;7.244;2022-12-11T02:51:35;42.33;;;22.13;;
27833;SDS011;15200;50.570;7.244;2022-12-11T02:54:03;42.27;;;21.50;;
27833;SDS011;15200;50.570;7.244;2022-12-11T02:56:33;48.37;;;22.23;;
27833;SDS011;15200;50.570;7.244;2022-12-11T02:59:07;47.00;;;23.47;;
27833;SDS011;15200;50.570;7.244;2022-12-11T03:01:29;42.93;;;20.50;;
27833;SDS011;15200;50.570;7.244;2022-12-11T03:06:44;44.83;;;21.90;;
27833;SDS011;15200;50.570;7.244;2022-12-11T03:09:12;46.43;;;22.97;;
27833;SDS011;15200;50.570;7.244;2022-12-11T03:11:39;43.47;;;22.60;;
27833;SDS011;15200;50.570;7.244;2022-12-11T03:14:07;41.57;;;20.23;;
27833;SDS011;15200;50.570;7.244;2022-12-11T03:16:35;44.13;;;22.37;;
27833;SDS011;15200;50.570;7.244;2022-12-11T03:19:10;45.10;;;21.90;;
27833;SDS011;15200;50.570;7.244;2022-12-11T03:22:10;39.97;;;21.43;;
27833;SDS011;15200;50.570;7.244;2022-12-11T03:24:58;42.73;;;21.83;;
27833;SDS011;15200;50.570;7.244;2022-12-11T03:27:28;39.20;;;21.63;;
27833;SDS011;15200;50.570;7.244;2022-12-11T03:30:01;37.23;;;20.87;;
27833;SDS011;15200;50.570;7.244;2022-12-11T03:32:25;41.87;;;21.70;;
27833;SDS011;15200;50.570;7.244;2022-12-11T03:35:19;39.43;;;21.83;;
27833;SDS011;15200;50.570;7.244;2022-12-11T03:37:47;39.67;;;21.73;;
27833;SDS011;15200;50.570;7.244;2022-12-11T03:40:35;36.63;;;20.87;;
27833;SDS011;15200;50.570;7.244;2022-12-11T03:43:04;45.07;;;22.70;;
27833;SDS011;15200;50.570;7.244;2022-12-11T03:45:32;41.97;;;22.17;;
27833;SDS011;15200;50.570;7.244;2022-12-11T03:48:00;42.53;;;22.43;;
27833;SDS011;15200;50.570;7.244;2022-12-11T03:50:29;39.73;;;21.33;;
27833;SDS011;15200;50.570;7.244;2022-12-11T03:52:57;43.10;;;21.77;;
27833;SDS011;15200;50.570;7.244;2022-12-11T03:55:26;42.07;;;21.63;;
27833;SDS011;15200;50.570;7.244;2022-12-11T03:57:54;44.77;;;22.53;;
27833;SDS011;15200;50.570;7.244;2022-12-11T04:00:21;45.33;;;23.53;;
27833;SDS011;15200;50.570;7.244;2022-12-11T04:02:48;42.10;;;22.57;;
27833;SDS011;15200;50.570;7.244;2022-12-11T04:05:17;47.47;;;23.23;;
27833;SDS011;15200;50.570;7.244;2022-12-11T04:07:45;45.50;;;22.87;;
27833;SDS011;15200;50.570;7.244;2022-12-11T04:10:12;51.33;;;23.43;;
27833;SDS011;15200;50.570;7.244;2022-12-11T04:12:39;52.37;;;24.53;;
27833;SDS011;15200;50.570;7.244;2022-12-11T04:15:07;44.23;;;23.13;;
27833;SDS011;15200;50.570;7.244;2022-12-11T04:17:35;50.07;;;25.77;;
27833;SDS011;15200;50.570;7.244;2022-12-11T04:20:20;50.10;;;25.47;;
27833;SDS011;15200;50.570;7.244;2022-12-11T04:23:08;52.23;;;24.60;;
27833;SDS011;15200;50.570;7.244;2022-12-11T04:25:52;55.27;;;26.23;;
27833;SDS011;15200;50.570;7.244;2022-12-11T04:28:20;54.43;;;26.30;;
27833;SDS011;15200;50.570;7.244;2022-12-11T04:30:48;50.20;;;25.40;;
27833;SDS011;15200;50.570;7.244;2022-12-11T04:33:15;56.20;;;26.80;;
27833;SDS011;15200;50.570;7.244;2022-12-11T04:35:43;59.77;;;26.80;;
27833;SDS011;15200;50.570;7.244;2022-12-11T04:38:10;53.07;;;26.57;;
27833;SDS011;15200;50.570;7.244;2022-12-11T04:40:37;53.13;;;26.23;;
27833;SDS011;15200;50.570;7.244;2022-12-11T04:43:05;57.43;;;27.50;;
27833;SDS011;15200;50.570;7.244;2022-12-11T04:45:32;58.90;;;26.50;;
27833;SDS011;15200;50.570;7.244;2022-12-11T04:47:59;49.77;;;25.17;;
27833;SDS011;15200;50.570;7.244;2022-12-11T04:50:26;53.90;;;26.57;;
27833;SDS011;15200;50.570;7.244;2022-12-11T04:52:54;51.97;;;26.87;;
27833;SDS011;15200;50.570;7.244;2022-12-11T04:55:22;55.33;;;26.00;;
27833;SDS011;15200;50.570;7.244;2022-12-11T04:57:49;57.10;;;27.00;;
27833;SDS011;15200;50.570;7.244;2022-12-11T05:00:17;55.33;;;26.83;;
27833;SDS011;15200;50.570;7.244;2022-12-11T05:02:44;55.70;;;27.53;;
27833;SDS011;15200;50.570;7.244;2022-12-11T05:05:11;56.37;;;27.10;;
27833;SDS011;15200;50.570;7.244;2022-12-11T05:07:39;51.33;;;25.97;;
27833;SDS011;15200;50.570;7.244;2022-12-11T05:10:07;55.53;;;27.30;;
27833;SDS011;15200;50.570;7.244;2022-12-11T05:12:34;53.17;;;27.27;;
27833;SDS011;15200;50.570;7.244;2022-12-11T05:15:02;53.20;;;26.17;;
27833;SDS011;15200;50.570;7.244;2022-12-11T05:17:29;61.80;;;27.27;;
27833;SDS011;15200;50.570;7.244;2022-12-11T05:19:57;51.83;;;27.63;;
27833;SDS011;15200;50.570;7.244;2022-12-11T05:22:24;51.03;;;26.83;;
27833;SDS011;15200;50.570;7.244;2022-12-11T05:24:51;53.57;;;26.37;;
27833;SDS011;15200;50.570;7.244;2022-12-11T05:27:18;54.10;;;25.90;;
27833;SDS011;15200;50.570;7.244;2022-12-11T05:29:46;49.20;;;25.53;;
27833;SDS011;15200;50.570;7.244;2022-12-11T05:32:13;48.37;;;25.27;;
27833;SDS011;15200;50.570;7.244;2022-12-11T05:34:40;61.33;;;26.00;;
27833;SDS011;15200;50.570;7.244;2022-12-11T05:37:08;54.33;;;26.27;;
27833;SDS011;15200;50.570;7.244;2022-12-11T05:39:36;60.03;;;25.87;;
27833;SDS011;15200;50.570;7.244;2022-12-11T05:42:03;56.23;;;26.53;;
27833;SDS011;15200;50.570;7.244;2022-12-11T05:44:30;53.97;;;27.17;;
27833;SDS011;15200;50.570;7.244;2022-12-11T05:46:58;61.00;;;27.77;;
27833;SDS011;15200;50.570;7.244;2022-12-11T05:49:25;59.57;;;25.57;;
27833;SDS011;15200;50.570;7.244;2022-12-11T05:51:52;63.00;;;28.27;;
27833;SDS011;15200;50.570;7.244;2022-12-11T05:54:20;64.73;;;29.10;;
27833;SDS011;15200;50.570;7.244;2022-12-11T05:56:48;66.57;;;28.10;;
27833;SDS011;15200;50.570;7.244;2022-12-11T05:59:16;65.77;;;28.90;;
27833;SDS011;15200;50.570;7.244;2022-12-11T06:01:45;74.60;;;29.03;;
27833;SDS011;15200;50.570;7.244;2022-12-11T06:04:12;67.87;;;28.23;;
27833;SDS011;15200;50.570;7.244;2022-12-11T06:06:40;75.00;;;29.60;;
27833;SDS011;15200;50.570;7.244;2022-12-11T06:09:12;71.90;;;30.23;;
27833;SDS011;15200;50.570;7.244;2022-12-11T06:11:57;71.00;;;29.43;;
27833;SDS011;15200;50.570;7.244;2022-12-11T06:14:24;64.77;;;30.00;;
27833;SDS011;15200;50.570;7.244;2022-12-11T06:16:51;77.73;;;30.03;;
27833;SDS011;15200;50.570;7.244;2022-12-11T06:19:19;72.43;;;31.40;;
27833;SDS011;15200;50.570;7.244;2022-12-11T06:21:46;71.63;;;30.17;;
27833;SDS011;15200;50.570;7.244;2022-12-11T06:24:14;78.90;;;31.23;;
27833;SDS011;15200;50.570;7.244;2022-12-11T06:26:41;77.80;;;30.10;;
27833;SDS011;15200;50.570;7.244;2022-12-11T06:29:08;70.10;;;29.53;;
27833;SDS011;15200;50.570;7.244;2022-12-11T06:31:36;82.67;;;31.57;;
27833;SDS011;15200;50.570;7.244;2022-12-11T06:34:03;71.33;;;32.50;;
27833;SDS011;15200;50.570;7.244;2022-12-11T06:36:31;74.37;;;29.37;;
27833;SDS011;15200;50.570;7.244;2022-12-11T06:38:58;79.03;;;31.80;;
27833;SDS011;15200;50.570;7.244;2022-12-11T06:41:26;77.07;;;30.87;;
27833;SDS011;15200;50.570;7.244;2022-12-11T06:43:53;67.93;;;30.80;;
27833;SDS011;15200;50.570;7.244;2022-12-11T06:46:20;60.77;;;27.30;;
27833;SDS011;15200;50.570;7.244;2022-12-11T06:48:47;69.03;;;28.33;;
27833;SDS011;15200;50.570;7.244;2022-12-11T06:51:36;65.53;;;27.10;;
27833;SDS011;15200;50.570;7.244;2022-12-11T06:54:03;62.97;;;29.07;;
27833;SDS011;15200;50.570;7.244;2022-12-11T06:56:32;58.43;;;26.03;;
27833;SDS011;15200;50.570;7.244;2022-12-11T06:58:59;54.90;;;25.93;;
27833;SDS011;15200;50.570;7.244;2022-12-11T07:01:27;54.20;;;27.03;;
27833;SDS011;15200;50.570;7.244;2022-12-11T07:04:15;57.00;;;26.73;;
27833;SDS011;15200;50.570;7.244;2022-12-11T07:06:42;62.10;;;28.37;;
27833;SDS011;15200;50.570;7.244;2022-12-11T07:09:09;56.33;;;28.00;;
27833;SDS011;15200;50.570;7.244;2022-12-11T07:11:36;53.80;;;26.93;;
27833;SDS011;15200;50.570;7.244;2022-12-11T07:14:04;52.83;;;26.60;;
27833;SDS011;15200;50.570;7.244;2022-12-11T07:16:31;52.97;;;26.00;;
27833;SDS011;15200;50.570;7.244;2022-12-11T07:18:58;48.33;;;25.33;;
27833;SDS011;15200;50.570;7.244;2022-12-11T07:21:26;46.47;;;24.17;;
27833;SDS011;15200;50.570;7.244;2022-12-11T07:23:53;46.60;;;24.87;;
27833;SDS011;15200;50.570;7.244;2022-12-11T07:26:20;50.47;;;23.97;;
27833;SDS011;15200;50.570;7.244;2022-12-11T07:28:48;51.33;;;24.60;;
27833;SDS011;15200;50.570;7.244;2022-12-11T07:31:22;49.13;;;23.83;;
27833;SDS011;15200;50.570;7.244;2022-12-11T07:33:53;47.03;;;23.93;;
27833;SDS011;15200;50.570;7.244;2022-12-11T07:36:41;53.77;;;25.40;;
27833;SDS011;15200;50.570;7.244;2022-12-11T07:39:13;47.60;;;24.13;;
27833;SDS011;15200;50.570;7.244;2022-12-11T07:41:37;50.87;;;25.07;;
27833;SDS011;15200;50.570;7.244;2022-12-11T07:44:05;53.60;;;25.73;;
27833;SDS011;15200;50.570;7.244;2022-12-11T07:46:32;52.90;;;26.50;;
27833;SDS011;15200;50.570;7.244;2022-12-11T07:49:20;49.23;;;24.67;;
27833;SDS011;15200;50.570;7.244;2022-12-11T07:51:47;54.40;;;27.23;;
27833;SDS011;15200;50.570;7.244;2022-12-11T07:54:15;48.83;;;24.20;;
27833;SDS011;15200;50.570;7.244;2022-12-11T07:56:43;55.27;;;25.40;;
27833;SDS011;15200;50.570;7.244;2022-12-11T07:59:10;51.80;;;25.23;;
27833;SDS011;15200;50.570;7.244;2022-12-11T08:01:38;49.43;;;25.73;;
27833;SDS011;15200;50.570;7.244;2022-12-11T08:04:06;54.17;;;26.30;;
27833;SDS011;15200;50.570;7.244;2022-12-11T08:06:35;45.97;;;24.07;;
27833;SDS011;15200;50.570;7.244;2022-12-11T08:09:04;50.40;;;25.10;;
27833;SDS011;15200;50.570;7.244;2022-12-11T08:11:33;47.57;;;24.57;;
27833;SDS011;15200;50.570;7.244;2022-12-11T08:14:01;46.83;;;24.77;;
27833;SDS011;15200;50.570;7.244;2022-12-11T08:16:33;46.50;;;25.13;;
27833;SDS011;15200;50.570;7.244;2022-12-11T08:18:57;48.30;;;24.13;;
27833;SDS011;15200;50.570;7.244;2022-12-11T08:21:26;40.30;;;23.57;;
27833;SDS011;15200;50.570;7.244;2022-12-11T08:23:54;51.67;;;24.53;;
27833;SDS011;15200;50.570;7.244;2022-12-11T08:26:23;47.33;;;24.47;;
27833;SDS011;15200;50.570;7.244;2022-12-11T08:28:51;46.13;;;24.47;;
27833;SDS011;15200;50.570;7.244;2022-12-11T08:31:18;48.20;;;25.37;;
27833;SDS011;15200;50.570;7.244;2022-12-11T08:33:46;52.07;;;25.10;;
27833;SDS011;15200;50.570;7.244;2022-12-11T08:36:15;47.63;;;24.40;;
27833;SDS011;15200;50.570;7.244;2022-12-11T08:38:43;45.07;;;23.03;;
27833;SDS011;15200;50.570;7.244;2022-12-11T08:41:15;50.17;;;25.10;;
27833;SDS011;15200;50.570;7.244;2022-12-11T08:43:42;52.27;;;25.40;;
27833;SDS011;15200;50.570;7.244;2022-12-11T08:46:11;49.33;;;24.83;;
27833;SDS011;15200;50.570;7.244;2022-12-11T08:48:39;52.47;;;24.77;;
27833;SDS011;15200;50.570;7.244;2022-12-11T08:51:08;51.60;;;25.03;;
27833;SDS011;15200;50.570;7.244;2022-12-11T08:53:35;48.83;;;25.07;;
27833;SDS011;15200;50.570;7.244;2022-12-11T08:56:05;47.27;;;23.50;;
27833;SDS011;15200;50.570;7.244;2022-12-11T08:58:33;46.40;;;23.90;;
27833;SDS011;15200;50.570;7.244;2022-12-11T09:01:15;48.90;;;24.97;;
27833;SDS011;15200;50.570;7.244;2022-12-11T09:03:49;48.23;;;24.43;;
27833;SDS011;15200;50.570;7.244;2022-12-11T09:06:19;46.53;;;24.30;;
27833;SDS011;15200;50.570;7.244;2022-12-11T09:08:47;46.97;;;23.67;;
27833;SDS011;15200;50.570;7.244;2022-12-11T09:11:16;46.07;;;24.97;;
27833;SDS011;15200;50.570;7.244;2022-12-11T09:13:43;45.13;;;23.63;;
27833;SDS011;15200;50.570;7.244;2022-12-11T09:16:12;44.70;;;23.43;;
27833;SDS011;15200;50.570;7.244;2022-12-11T09:18:40;47.50;;;22.57;;
27833;SDS011;15200;50.570;7.244;2022-12-11T09:21:08;50.20;;;24.93;;
27833;SDS011;15200;50.570;7.244;2022-12-11T09:23:36;52.17;;;25.63;;
27833;SDS011;15200;50.570;7.244;2022-12-11T09:26:04;45.67;;;23.30;;
27833;SDS011;15200;50.570;7.244;2022-12-11T09:28:32;49.43;;;24.47;;
27833;SDS011;15200;50.570;7.244;2022-12-11T09:30:59;45.33;;;24.93;;
27833;SDS011;15200;50.570;7.244;2022-12-11T09:33:27;44.33;;;23.40;;
27833;SDS011;15200;50.570;7.244;2022-12-11T09:36:00;46.37;;;23.00;;
27833;SDS011;15200;50.570;7.244;2022-12-11T09:38:28;46.83;;;23.83;;
27833;SDS011;15200;50.570;7.244;2022-12-11T09:40:56;43.77;;;22.40;;
27833;SDS011;15200;50.570;7.244;2022-12-11T09:43:36;48.53;;;23.17;;
27833;SDS011;15200;50.570;7.244;2022-12-11T09:46:02;53.57;;;25.73;;
27833;SDS011;15200;50.570;7.244;2022-12-11T09:48:30;47.53;;;23.10;;
27833;SDS011;15200;50.570;7.244;2022-12-11T09:50:58;43.97;;;22.07;;
27833;SDS011;15200;50.570;7.244;2022-12-11T09:53:47;48.50;;;25.20;;
27833;SDS011;15200;50.570;7.244;2022-12-11T09:56:16;44.50;;;24.47;;
27833;SDS011;15200;50.570;7.244;2022-12-11T09:58:59;48.93;;;25.00;;
27833;SDS011;15200;50.570;7.244;2022-12-11T10:04:24;41.87;;;21.83;;
27833;SDS011;15200;50.570;7.244;2022-12-11T10:07:00;46.07;;;24.17;;
27833;SDS011;15200;50.570;7.244;2022-12-11T10:09:38;43.07;;;24.37;;
27833;SDS011;15200;50.570;7.244;2022-12-11T10:17:35;45.83;;;22.17;;
27833;SDS011;15200;50.570;7.244;2022-12-11T10:20:23;40.37;;;21.37;;
27833;SDS011;15200;50.570;7.244;2022-12-11T10:22:52;42.67;;;22.00;;
27833;SDS011;15200;50.570;7.244;2022-12-11T10:25:21;42.40;;;22.63;;
27833;SDS011;15200;50.570;7.244;2022-12-11T10:27:50;41.83;;;22.60;;
27833;SDS011;15200;50.570;7.244;2022-12-11T10:30:21;40.43;;;23.37;;
27833;SDS011;15200;50.570;7.244;2022-12-11T10:35:32;40.53;;;21.60;;
27833;SDS011;15200;50.570;7.244;2022-12-11T10:40:53;36.60;;;20.17;;
27833;SDS011;15200;50.570;7.244;2022-12-11T10:43:19;38.53;;;21.90;;
27833;SDS011;15200;50.570;7.244;2022-12-11T10:45:50;36.40;;;20.47;;
27833;SDS011;15200;50.570;7.244;2022-12-11T10:48:48;41.60;;;20.70;;
27833;SDS011;15200;50.570;7.244;2022-12-11T10:51:06;38.17;;;21.03;;
27833;SDS011;15200;50.570;7.244;2022-12-11T10:53:34;39.90;;;21.10;;
27833;SDS011;15200;50.570;7.244;2022-12-11T10:56:01;39.33;;;22.20;;
27833;SDS011;15200;50.570;7.244;2022-12-11T10:58:29;41.37;;;21.50;;
27833;SDS011;15200;50.570;7.244;2022-12-11T11:01:04;46.97;;;24.07;;
27833;SDS011;15200;50.570;7.244;2022-12-11T11:06:41;35.47;;;18.13;;
27833;SDS011;15200;50.570;7.244;2022-12-11T11:09:32;41.30;;;19.67;;
27833;SDS011;15200;50.570;7.244;2022-12-11T11:11:56;35.80;;;19.53;;
27833;SDS011;15200;50.570;7.244;2022-12-11T11:14:23;33.97;;;19.27;;
27833;SDS011;15200;50.570;7.244;2022-12-11T11:16:53;35.37;;;19.33;;
27833;SDS011;15200;50.570;7.244;2022-12-11T11:19:29;34.50;;;18.70;;
27833;SDS011;15200;50.570;7.244;2022-12-11T11:22:05;32.67;;;19.57;;
27833;SDS011;15200;50.570;7.244;2022-12-11T11:24:32;35.93;;;19.73;;
27833;SDS011;15200;50.570;7.244;2022-12-11T11:26:57;34.97;;;20.53;;
27833;SDS011;15200;50.570;7.244;2022-12-11T11:29:29;35.40;;;19.63;;
27833;SDS011;15200;50.570;7.244;2022-12-11T11:32:01;32.93;;;18.53;;
27833;SDS011;15200;50.570;7.244;2022-12-11T11:34:47;38.90;;;20.17;;
27833;SDS011;15200;50.570;7.244;2022-12-11T11:37:22;37.60;;;19.83;;
27833;SDS011;15200;50.570;7.244;2022-12-11T11:39:51;33.87;;;19.10;;
27833;SDS011;15200;50.570;7.244;2022-12-11T11:42:29;32.77;;;18.37;;
27833;SDS011;15200;50.570;7.244;2022-12-11T11:45:18;33.97;;;19.07;;
27833;SDS011;15200;50.570;7.244;2022-12-11T11:47:59;34.83;;;19.63;;
27833;SDS011;15200;50.570;7.244;2022-12-11T11:50:30;36.10;;;19.37;;
27833;SDS011;15200;50.570;7.244;2022-12-11T11:53:03;34.43;;;19.40;;
27833;SDS011;15200;50.570;7.244;2022-12-11T11:58:18;33.83;;;18.50;;
27833;SDS011;15200;50.570;7.244;2022-12-11T12:00:30;32.20;;;18.97;;
27833;SDS011;15200;50.570;7.244;2022-12-11T12:03:11;37.53;;;20.20;;
27833;SDS011;15200;50.570;7.244;2022-12-11T12:10:46;37.00;;;20.90;;
27833;SDS011;15200;50.570;7.244;2022-12-11T12:13:27;37.70;;;18.67;;
27833;SDS011;15200;50.570;7.244;2022-12-11T12:15:56;34.70;;;19.13;;
27833;SDS011;15200;50.570;7.244;2022-12-11T12:21:08;32.77;;;18.37;;
27833;SDS011;15200;50.570;7.244;2022-12-11T12:26:23;27.67;;;16.12;;
27833;SDS011;15200;50.570;7.244;2022-12-11T12:31:55;29.53;;;17.00;;
27833;SDS011;15200;50.570;7.244;2022-12-11T12:34:28;29.70;;;16.43;;
27833;SDS011;15200;50.570;7.244;2022-12-11T12:47:32;31.77;;;17.40;;
27833;SDS011;15200;50.570;7.244;2022-12-11T12:50:01;29.93;;;15.90;;
27833;SDS011;15200;50.570;7.244;2022-12-11T12:55:15;29.77;;;16.77;;
27833;SDS011;15200;50.570;7.244;2022-12-11T13:00:38;29.80;;;16.20;;
27833;SDS011;15200;50.570;7.244;2022-12-11T13:03:15;28.47;;;16.93;;
27833;SDS011;15200;50.570;7.244;2022-12-11T13:05:56;29.50;;;16.43;;
27833;SDS011;15200;50.570;7.244;2022-12-11T13:08:34;30.60;;;16.87;;
27833;SDS011;15200;50.570;7.244;2022-12-11T13:11:00;25.53;;;14.20;;
27833;SDS011;15200;50.570;7.244;2022-12-11T13:13:33;24.53;;;13.10;;
27833;SDS011;15200;50.570;7.244;2022-12-11T13:16:06;26.87;;;15.10;;
27833;SDS011;15200;50.570;7.244;2022-12-11T13:18:36;30.20;;;16.03;;
27833;SDS011;15200;50.570;7.244;2022-12-11T13:21:21;29.97;;;16.90;;
27833;SDS011;15200;50.570;7.244;2022-12-11T13:23:32;28.20;;;16.03;;
27833;SDS011;15200;50.570;7.244;2022-12-11T13:26:02;26.27;;;15.67;;
27833;SDS011;15200;50.570;7.244;2022-12-11T13:28:44;26.70;;;15.37;;
27833;SDS011;15200;50.570;7.244;2022-12-11T13:31:06;23.77;;;13.63;;
27833;SDS011;15200;50.570;7.244;2022-12-11T13:33:30;24.23;;;14.20;;
27833;SDS011;15200;50.570;7.244;2022-12-11T13:38:43;21.03;;;12.93;;
27833;SDS011;15200;50.570;7.244;2022-12-11T13:41:10;22.57;;;13.70;;
27833;SDS011;15200;50.570;7.244;2022-12-11T13:43:39;25.13;;;13.80;;
27833;SDS011;15200;50.570;7.244;2022-12-11T13:46:08;22.57;;;13.93;;
27833;SDS011;15200;50.570;7.244;2022-12-11T13:48:46;31.53;;;13.80;;
27833;SDS011;15200;50.570;7.244;2022-12-11T13:51:18;24.50;;;13.87;;
27833;SDS011;15200;50.570;7.244;2022-12-11T13:53:46;25.80;;;13.13;;
27833;SDS011;15200;50.570;7.244;2022-12-11T13:56:18;24.80;;;13.60;;
27833;SDS011;15200;50.570;7.244;2022-12-11T13:58:46;24.07;;;13.83;;
27833;SDS011;15200;50.570;7.244;2022-12-11T14:01:25;21.33;;;13.13;;
27833;SDS011;15200;50.570;7.244;2022-12-11T14:04:01;26.87;;;14.23;;
27833;SDS011;15200;50.570;7.244;2022-12-11T14:06:30;24.20;;;12.87;;
27833;SDS011;15200;50.570;7.244;2022-12-11T14:08:59;23.63;;;13.57;;
27833;SDS011;15200;50.570;7.244;2022-12-11T14:11:30;24.10;;;13.63;;
27833;SDS011;15200;50.570;7.244;2022-12-11T14:16:49;24.30;;;13.63;;
27833;SDS011;15200;50.570;7.244;2022-12-11T14:19:18;27.00;;;13.10;;
27833;SDS011;15200;50.570;7.244;2022-12-11T14:24:23;23.90;;;13.00;;
27833;SDS011;15200;50.570;7.244;2022-12-11T14:26:51;24.37;;;13.53;;
27833;SDS011;15200;50.570;7.244;2022-12-11T14:29:26;26.10;;;13.70;;
27833;SDS011;15200;50.570;7.244;2022-12-11T14:31:55;23.23;;;13.27;;
27833;SDS011;15200;50.570;7.244;2022-12-11T14:34:24;20.47;;;12.10;;
27833;SDS011;15200;50.570;7.244;2022-12-11T14:36:52;22.57;;;13.03;;
27833;SDS011;15200;50.570;7.244;2022-12-11T14:39:22;21.50;;;12.60;;
27833;SDS011;15200;50.570;7.244;2022-12-11T14:41:56;24.10;;;13.10;;
27833;SDS011;15200;50.570;7.244;2022-12-11T14:44:23;25.70;;;13.93;;
27833;SDS011;15200;50.570;7.244;2022-12-11T14:46:53;26.80;;;12.97;;
27833;SDS011;15200;50.570;7.244;2022-12-11T14:49:22;22.77;;;13.37;;
27833;SDS011;15200;50.570;7.244;2022-12-11T14:51:49;27.07;;;13.57;;
27833;SDS011;15200;50.570;7.244;2022-12-11T14:54:25;25.20;;;14.33;;
27833;SDS011;15200;50.570;7.244;2022-12-11T14:56:55;24.07;;;12.80;;
27833;SDS011;15200;50.570;7.244;2022-12-11T14:59:34;26.70;;;13.83;;
27833;SDS011;15200;50.570;7.244;2022-12-11T15:02:02;25.50;;;13.20;;
27833;SDS011;15200;50.570;7.244;2022-12-11T15:04:30;23.37;;;12.00;;
27833;SDS011;15200;50.570;7.244;2022-12-11T15:06:58;23.37;;;12.57;;
27833;SDS011;15200;50.570;7.244;2022-12-11T15:09:33;23.07;;;11.97;;
27833;SDS011;15200;50.570;7.244;2022-12-11T15:11:58;27.33;;;13.70;;
27833;SDS011;15200;50.570;7.244;2022-12-11T15:14:25;24.40;;;11.93;;
27833;SDS011;15200;50.570;7.244;2022-12-11T15:16:53;24.20;;;13.07;;
27833;SDS011;15200;50.570;7.244;2022-12-11T15:19:23;20.07;;;12.47;;
27833;SDS011;15200;50.570;7.244;2022-12-11T15:21:50;23.03;;;13.27;;
27833;SDS011;15200;50.570;7.244;2022-12-11T15:24:22;23.57;;;12.47;;
27833;SDS011;15200;50.570;7.244;2022-12-11T15:26:49;23.80;;;13.07;;
27833;SDS011;15200;50.570;7.244;2022-12-11T15:29:30;25.87;;;12.03;;
27833;SDS011;15200;50.570;7.244;2022-12-11T15:31:59;22.07;;;11.47;;
27833;SDS011;15200;50.570;7.244;2022-12-11T15:34:30;22.17;;;12.13;;
27833;SDS011;15200;50.570;7.244;2022-12-11T15:36:55;22.33;;;12.23;;
27833;SDS011;15200;50.570;7.244;2022-12-11T15:39:23;22.07;;;11.50;;
27833;SDS011;15200;50.570;7.244;2022-12-11T15:41:50;21.17;;;11.33;;
27833;SDS011;15200;50.570;7.244;2022-12-11T15:44:19;23.77;;;12.27;;
27833;SDS011;15200;50.570;7.244;2022-12-11T15:47:16;20.40;;;11.40;;
27833;SDS011;15200;50.570;7.244;2022-12-11T15:49:40;23.47;;;11.90;;
27833;SDS011;15200;50.570;7.244;2022-12-11T15:52:07;22.27;;;12.07;;